sensor_id;sensor_type;location;lat;lon;timestamp;pressure;altitude;pressure_sealevel;temperature;humidity
58534;BME280;44109;52.398;7.024;2023-05-24T00:02:19;102137.56;;;7.80;100.00
58534;BME280;44109;52.398;7.024;2023-05-24T00:04:48;102150.44;;;7.84;100.00
58534;BME280;44109;52.398;7.024;2023-05-24T00:07:17;102146.69;;;7.80;100.00
58534;BME280;44109;52.398;7.024;2023-05-24T00:09:45;102148.94;;;7.78;100.00
58534;BME280;44109;52.398;7.024;2023-05-24T00:12:13;102147.47;;;7.72;100.00
58534;BME280;44109;52.398;7.024;2023-05-24T00:14:41;102147.59;;;7.67;100.00
58534;BME280;44109;52.398;7.024;2023-05-24T00:17:11;102153.81;;;7.73;100.00
58534;BME280;44109;52.398;7.024;2023-05-24T00:19:39;102149.22;;;7.68;100.00
58534;BME280;44109;52.398;7.024;2023-05-24T00:22:06;102140.56;;;7.61;100.00
58534;BME280;44109;52.398;7.024;2023-05-24T00:24:34;102142.06;;;7.67;100.00
58534;BME280;44109;52.398;7.024;2023-05-24T00:27:02;102138.03;;;7.73;100.00
58534;BME280;44109;52.398;7.024;2023-05-24T00:29:29;102134.47;;;7.73;100.00
58534;BME280;44109;52.398;7.024;2023-05-24T00:31:57;102132.00;;;7.71;100.00
58534;BME280;44109;52.398;7.024;2023-05-24T00:34:26;102134.44;;;7.64;100.00
58534;BME280;44109;52.398;7.024;2023-05-24T00:36:53;102133.28;;;7.65;100.00
58534;BME280;44109;52.398;7.024;2023-05-24T00:39:22;102134.44;;;7.64;100.00
58534;BME280;44109;52.398;7.024;2023-05-24T00:41:50;102139.44;;;7.62;100.00
58534;BME280;44109;52.398;7.024;2023-05-24T00:44:17;102126.28;;;7.59;100.00
58534;BME280;44109;52.398;7.024;2023-05-24T00:46:46;102126.38;;;7.54;100.00
58534;BME280;44109;52.398;7.024;2023-05-24T00:49:13;102120.38;;;7.52;100.00
58534;BME280;44109;52.398;7.024;2023-05-24T00:51:42;102131.25;;;7.48;100.00
58534;BME280;44109;52.398;7.024;2023-05-24T00:54:10;102121.53;;;7.51;100.00
58534;BME280;44109;52.398;7.024;2023-05-24T00:56:40;102133.91;;;7.62;100.00
58534;BME280;44109;52.398;7.024;2023-05-24T00:59:09;102122.88;;;7.62;100.00
58534;BME280;44109;52.398;7.024;2023-05-24T01:01:36;102118.00;;;7.59;100.00
58534;BME280;44109;52.398;7.024;2023-05-24T01:04:04;102118.09;;;7.54;100.00
58534;BME280;44109;52.398;7.024;2023-05-24T01:06:49;102114.88;;;7.52;100.00
58534;BME280;44109;52.398;7.024;2023-05-24T01:09:33;102109.34;;;7.52;100.00
58534;BME280;44109;52.398;7.024;2023-05-24T01:12:19;102112.25;;;7.47;100.00
58534;BME280;44109;52.398;7.024;2023-05-24T01:15:01;102123.16;;;7.52;100.00
58534;BME280;44109;52.398;7.024;2023-05-24T01:17:41;102127.75;;;7.65;100.00
58534;BME280;44109;52.398;7.024;2023-05-24T01:20:16;102126.66;;;7.75;100.00
58534;BME280;44109;52.398;7.024;2023-05-24T01:23:05;102124.09;;;7.78;100.00
58534;BME280;44109;52.398;7.024;2023-05-24T01:25:52;102120.38;;;7.83;100.00
58534;BME280;44109;52.398;7.024;2023-05-24T01:28:41;102120.88;;;7.94;100.00
58534;BME280;44109;52.398;7.024;2023-05-24T01:31:10;102123.34;;;8.04;100.00
58534;BME280;44109;52.398;7.024;2023-05-24T01:33:40;102119.97;;;8.07;100.00
58534;BME280;44109;52.398;7.024;2023-05-24T01:36:08;102123.03;;;7.97;100.00
58534;BME280;44109;52.398;7.024;2023-05-24T01:38:37;102115.72;;;8.01;100.00
58534;BME280;44109;52.398;7.024;2023-05-24T01:41:14;102115.09;;;8.12;100.00
58534;BME280;44109;52.398;7.024;2023-05-24T01:43:55;102108.59;;;8.17;100.00
58534;BME280;44109;52.398;7.024;2023-05-24T01:46:34;102104.22;;;8.16;100.00
58534;BME280;44109;52.398;7.024;2023-05-24T01:49:10;102104.88;;;8.22;100.00
58534;BME280;44109;52.398;7.024;2023-05-24T01:51:47;102101.31;;;8.21;100.00
58534;BME280;44109;52.398;7.024;2023-05-24T01:54:20;102099.03;;;8.23;100.00
58534;BME280;44109;52.398;7.024;2023-05-24T01:56:51;102100.50;;;8.29;100.00
58534;BME280;44109;52.398;7.024;2023-05-24T01:59:23;102102.25;;;8.17;100.00
58534;BME280;44109;52.398;7.024;2023-05-24T02:01:54;102106.84;;;8.30;100.00
58534;BME280;44109;52.398;7.024;2023-05-24T02:04:23;102113.56;;;8.37;100.00
58534;BME280;44109;52.398;7.024;2023-05-24T02:06:51;102112.28;;;8.44;100.00
58534;BME280;44109;52.398;7.024;2023-05-24T02:09:19;102098.94;;;8.46;100.00
58534;BME280;44109;52.398;7.024;2023-05-24T02:11:46;102098.97;;;8.54;100.00
58534;BME280;44109;52.398;7.024;2023-05-24T02:14:14;102109.88;;;8.59;100.00
58534;BME280;44109;52.398;7.024;2023-05-24T02:16:46;102101.88;;;8.58;100.00
58534;BME280;44109;52.398;7.024;2023-05-24T02:19:15;102098.13;;;8.54;100.00
58534;BME280;44109;52.398;7.024;2023-05-24T02:21:43;102092.13;;;8.52;100.00
58534;BME280;44109;52.398;7.024;2023-05-24T02:24:11;102098.94;;;8.46;100.00
58534;BME280;44109;52.398;7.024;2023-05-24T02:26:38;102103.81;;;8.40;100.00
58534;BME280;44109;52.398;7.024;2023-05-24T02:29:06;102106.41;;;8.36;100.00
58534;BME280;44109;52.398;7.024;2023-05-24T02:31:33;102101.16;;;8.35;100.00
58534;BME280;44109;52.398;7.024;2023-05-24T02:34:02;102102.34;;;8.43;100.00
58534;BME280;44109;52.398;7.024;2023-05-24T02:36:30;102107.25;;;8.54;100.00
58534;BME280;44109;52.398;7.024;2023-05-24T02:39:01;102111.16;;;8.71;100.00
58534;BME280;44109;52.398;7.024;2023-05-24T02:41:29;102108.56;;;8.74;100.00
58534;BME280;44109;52.398;7.024;2023-05-24T02:43:56;102111.97;;;8.88;100.00
58534;BME280;44109;52.398;7.024;2023-05-24T02:46:24;102110.81;;;8.81;100.00
58534;BME280;44109;52.398;7.024;2023-05-24T02:48:51;102106.78;;;8.87;100.00
58534;BME280;44109;52.398;7.024;2023-05-24T02:51:20;102108.22;;;8.84;100.00
58534;BME280;44109;52.398;7.024;2023-05-24T02:53:48;102110.00;;;8.98;100.00
58534;BME280;44109;52.398;7.024;2023-05-24T02:56:16;102104.00;;;8.96;100.00
58534;BME280;44109;52.398;7.024;2023-05-24T02:58:43;102096.50;;;8.87;100.00
58534;BME280;44109;52.398;7.024;2023-05-24T03:01:11;102098.78;;;8.85;100.00
58534;BME280;44109;52.398;7.024;2023-05-24T03:03:39;102094.56;;;8.88;100.00
58534;BME280;44109;52.398;7.024;2023-05-24T03:06:06;102092.94;;;8.96;100.00
58534;BME280;44109;52.398;7.024;2023-05-24T03:08:35;102092.25;;;8.90;100.00
58534;BME280;44109;52.398;7.024;2023-05-24T03:11:03;102091.44;;;8.98;100.00
58534;BME280;44109;52.398;7.024;2023-05-24T03:13:31;102072.59;;;8.92;100.00
58534;BME280;44109;52.398;7.024;2023-05-24T03:15:59;102085.44;;;9.05;100.00
58534;BME280;44109;52.398;7.024;2023-05-24T03:18:26;102083.66;;;8.92;100.00
58534;BME280;44109;52.398;7.024;2023-05-24T03:20:54;102083.97;;;8.99;100.00
58534;BME280;44109;52.398;7.024;2023-05-24T03:23:21;102086.25;;;8.79;100.00
58534;BME280;44109;52.398;7.024;2023-05-24T03:25:50;102084.94;;;8.85;100.00
58534;BME280;44109;52.398;7.024;2023-05-24T03:28:18;102075.19;;;8.79;100.00
58534;BME280;44109;52.398;7.024;2023-05-24T03:30:47;102075.53;;;8.86;100.00
58534;BME280;44109;52.398;7.024;2023-05-24T03:33:14;102076.50;;;8.91;100.00
58534;BME280;44109;52.398;7.024;2023-05-24T03:35:42;102082.97;;;8.95;100.00
58534;BME280;44109;52.398;7.024;2023-05-24T03:38:10;102082.03;;;8.91;100.00
58534;BME280;44109;52.398;7.024;2023-05-24T03:40:37;102082.03;;;8.91;100.00
58534;BME280;44109;52.398;7.024;2023-05-24T03:43:06;102067.88;;;8.66;100.00
58534;BME280;44109;52.398;7.024;2023-05-24T03:45:34;102083.16;;;8.81;100.00
58534;BME280;44109;52.398;7.024;2023-05-24T03:48:01;102091.78;;;8.79;100.00
58534;BME280;44109;52.398;7.024;2023-05-24T03:50:29;102080.38;;;8.89;100.00
58534;BME280;44109;52.398;7.024;2023-05-24T03:52:57;102091.78;;;8.88;100.00
58534;BME280;44109;52.398;7.024;2023-05-24T03:55:24;102090.16;;;8.96;100.00
58534;BME280;44109;52.398;7.024;2023-05-24T03:57:52;102082.34;;;8.98;100.00
58534;BME280;44109;52.398;7.024;2023-05-24T04:00:21;102094.72;;;8.92;100.00
58534;BME280;44109;52.398;7.024;2023-05-24T04:02:48;102085.44;;;9.05;100.00
58534;BME280;44109;52.398;7.024;2023-05-24T04:05:16;102096.31;;;9.10;100.00
58534;BME280;44109;52.398;7.024;2023-05-24T04:07:44;102096.34;;;8.93;100.00
58534;BME280;44109;52.398;7.024;2023-05-24T04:10:11;102091.94;;;9.09;100.00
58534;BME280;44109;52.398;7.024;2023-05-24T04:12:40;102084.28;;;9.14;100.00
58534;BME280;44109;52.398;7.024;2023-05-24T04:15:08;102092.84;;;9.30;100.00
58534;BME280;44109;52.398;7.024;2023-05-24T04:17:41;102082.78;;;9.17;100.00
58534;BME280;44109;52.398;7.024;2023-05-24T04:20:09;102093.31;;;9.50;100.00
58534;BME280;44109;52.398;7.024;2023-05-24T04:22:37;102096.75;;;9.38;100.00
58534;BME280;44109;52.398;7.024;2023-05-24T04:25:06;102089.66;;;9.58;100.00
58534;BME280;44109;52.398;7.024;2023-05-24T04:27:34;102076.16;;;9.56;100.00
58534;BME280;44109;52.398;7.024;2023-05-24T04:30:02;102084.13;;;9.58;100.00
58534;BME280;44109;52.398;7.024;2023-05-24T04:32:30;102082.03;;;9.55;100.00
58534;BME280;44109;52.398;7.024;2023-05-24T04:34:59;102083.13;;;9.62;100.00
58534;BME280;44109;52.398;7.024;2023-05-24T04:37:29;102085.78;;;9.59;100.00
58534;BME280;44109;52.398;7.024;2023-05-24T04:39:56;102083.59;;;9.73;100.00
58534;BME280;44109;52.398;7.024;2023-05-24T04:42:24;102093.66;;;9.39;100.00
58534;BME280;44109;52.398;7.024;2023-05-24T04:44:52;102089.41;;;9.42;100.00
58534;BME280;44109;52.398;7.024;2023-05-24T04:47:19;102081.22;;;9.54;100.00
58534;BME280;44109;52.398;7.024;2023-05-24T04:49:47;102082.88;;;9.85;100.00
58534;BME280;44109;52.398;7.024;2023-05-24T04:52:16;102074.16;;;10.04;100.00
58534;BME280;44109;52.398;7.024;2023-05-24T04:54:44;102093.13;;;9.55;100.00
58534;BME280;44109;52.398;7.024;2023-05-24T04:57:11;102102.59;;;9.54;100.00
58534;BME280;44109;52.398;7.024;2023-05-24T04:59:39;102109.63;;;9.81;100.00
58534;BME280;44109;52.398;7.024;2023-05-24T05:02:06;102097.19;;;9.96;100.00
58534;BME280;44109;52.398;7.024;2023-05-24T05:04:34;102088.94;;;9.78;100.00
58534;BME280;44109;52.398;7.024;2023-05-24T05:07:02;102096.13;;;9.79;100.00
58534;BME280;44109;52.398;7.024;2023-05-24T05:09:31;102101.16;;;9.86;100.00
58534;BME280;44109;52.398;7.024;2023-05-24T05:11:59;102105.94;;;9.77;100.00
58534;BME280;44109;52.398;7.024;2023-05-24T05:14:26;102102.63;;;9.83;100.00
58534;BME280;44109;52.398;7.024;2023-05-24T05:16:54;102084.63;;;9.60;100.00
58534;BME280;44109;52.398;7.024;2023-05-24T05:19:22;102103.72;;;9.91;100.00
58534;BME280;44109;52.398;7.024;2023-05-24T05:21:49;102108.31;;;9.87;100.00
58534;BME280;44109;52.398;7.024;2023-05-24T05:24:17;102115.44;;;9.97;100.00
58534;BME280;44109;52.398;7.024;2023-05-24T05:26:46;102108.66;;;10.15;100.00
58534;BME280;44109;52.398;7.024;2023-05-24T05:29:14;102110.28;;;10.16;100.00
58534;BME280;44109;52.398;7.024;2023-05-24T05:31:41;102112.03;;;10.29;100.00
58534;BME280;44109;52.398;7.024;2023-05-24T05:34:09;102112.59;;;10.44;100.00
58534;BME280;44109;52.398;7.024;2023-05-24T05:36:37;102111.97;;;10.38;100.00
58534;BME280;44109;52.398;7.024;2023-05-24T05:39:06;102118.19;;;10.35;100.00
58534;BME280;44109;52.398;7.024;2023-05-24T05:41:37;102114.97;;;10.54;100.00
58534;BME280;44109;52.398;7.024;2023-05-24T05:44:06;102118.31;;;10.38;100.00
58534;BME280;44109;52.398;7.024;2023-05-24T05:46:34;102115.53;;;10.68;100.00
58534;BME280;44109;52.398;7.024;2023-05-24T05:49:02;102120.91;;;10.85;100.00
58534;BME280;44109;52.398;7.024;2023-05-24T05:51:29;102116.19;;;10.86;100.00
58534;BME280;44109;52.398;7.024;2023-05-24T05:53:57;102110.09;;;10.72;100.00
58534;BME280;44109;52.398;7.024;2023-05-24T05:56:24;102118.47;;;11.05;100.00
58534;BME280;44109;52.398;7.024;2023-05-24T05:58:52;102113.44;;;11.19;100.00
58534;BME280;44109;52.398;7.024;2023-05-24T06:01:24;102109.03;;;11.18;100.00
58534;BME280;44109;52.398;7.024;2023-05-24T06:03:51;102107.59;;;11.12;100.00
58534;BME280;44109;52.398;7.024;2023-05-24T06:06:19;102115.63;;;11.13;100.00
58534;BME280;44109;52.398;7.024;2023-05-24T06:08:46;102113.25;;;11.49;100.00
58534;BME280;44109;52.398;7.024;2023-05-24T06:11:14;102110.00;;;11.34;100.00
58534;BME280;44109;52.398;7.024;2023-05-24T06:13:42;102121.66;;;11.73;100.00
58534;BME280;44109;52.398;7.024;2023-05-24T06:16:09;102111.66;;;11.48;100.00
58534;BME280;44109;52.398;7.024;2023-05-24T06:18:38;102116.63;;;11.42;100.00
58534;BME280;44109;52.398;7.024;2023-05-24T06:21:07;102110.50;;;11.49;100.00
58534;BME280;44109;52.398;7.024;2023-05-24T06:23:35;102118.41;;;11.59;100.00
58534;BME280;44109;52.398;7.024;2023-05-24T06:26:04;102121.94;;;12.05;100.00
58534;BME280;44109;52.398;7.024;2023-05-24T06:28:33;102117.91;;;12.27;100.00
58534;BME280;44109;52.398;7.024;2023-05-24T06:31:01;102125.72;;;12.89;100.00
58534;BME280;44109;52.398;7.024;2023-05-24T06:33:29;102120.41;;;13.25;100.00
58534;BME280;44109;52.398;7.024;2023-05-24T06:35:59;102118.19;;;12.50;100.00
58534;BME280;44109;52.398;7.024;2023-05-24T06:38:26;102126.50;;;12.74;100.00
58534;BME280;44109;52.398;7.024;2023-05-24T06:40:54;102124.31;;;13.36;100.00
58534;BME280;44109;52.398;7.024;2023-05-24T06:43:22;102121.97;;;12.69;100.00
58534;BME280;44109;52.398;7.024;2023-05-24T06:45:49;102126.78;;;13.25;100.00
58534;BME280;44109;52.398;7.024;2023-05-24T06:48:17;102128.19;;;13.47;100.00
58534;BME280;44109;52.398;7.024;2023-05-24T06:50:44;102117.88;;;13.63;100.00
58534;BME280;44109;52.398;7.024;2023-05-24T06:53:14;102130.72;;;14.15;100.00
58534;BME280;44109;52.398;7.024;2023-05-24T06:55:41;102124.03;;;14.71;99.26
58534;BME280;44109;52.398;7.024;2023-05-24T06:58:09;102124.03;;;14.20;97.20
58534;BME280;44109;52.398;7.024;2023-05-24T07:00:39;102120.22;;;13.77;100.00
58534;BME280;44109;52.398;7.024;2023-05-24T07:03:07;102109.41;;;14.42;97.74
58534;BME280;44109;52.398;7.024;2023-05-24T07:05:36;102118.34;;;14.32;96.21
58534;BME280;44109;52.398;7.024;2023-05-24T07:08:03;102123.34;;;13.91;100.00
58534;BME280;44109;52.398;7.024;2023-05-24T07:10:33;102132.16;;;13.93;100.00
58534;BME280;44109;52.398;7.024;2023-05-24T07:13:00;102133.53;;;14.00;97.86
58534;BME280;44109;52.398;7.024;2023-05-24T07:15:29;102131.50;;;14.32;96.27
58534;BME280;44109;52.398;7.024;2023-05-24T07:17:56;102127.28;;;14.73;89.75
58534;BME280;44109;52.398;7.024;2023-05-24T07:20:24;102147.25;;;14.24;89.83
58534;BME280;44109;52.398;7.024;2023-05-24T07:22:51;102146.09;;;13.93;91.84
58534;BME280;44109;52.398;7.024;2023-05-24T07:25:19;102148.53;;;13.79;91.33
58534;BME280;44109;52.398;7.024;2023-05-24T07:27:49;102140.16;;;13.79;95.72
58534;BME280;44109;52.398;7.024;2023-05-24T07:30:17;102144.41;;;14.05;100.00
58534;BME280;44109;52.398;7.024;2023-05-24T07:32:44;102144.94;;;14.96;89.95
58534;BME280;44109;52.398;7.024;2023-05-24T07:35:12;102140.38;;;15.27;92.75
58534;BME280;44109;52.398;7.024;2023-05-24T07:37:40;102138.56;;;15.38;89.19
58534;BME280;44109;52.398;7.024;2023-05-24T07:40:08;102127.41;;;15.81;83.50
58534;BME280;44109;52.398;7.024;2023-05-24T07:42:37;102137.66;;;14.73;84.88
58534;BME280;44109;52.398;7.024;2023-05-24T07:45:07;102136.28;;;15.44;79.90
58534;BME280;44109;52.398;7.024;2023-05-24T07:47:36;102140.81;;;14.90;82.13
58534;BME280;44109;52.398;7.024;2023-05-24T07:50:04;102135.09;;;15.22;81.31
58534;BME280;44109;52.398;7.024;2023-05-24T07:52:32;102132.44;;;16.21;84.37
58534;BME280;44109;52.398;7.024;2023-05-24T07:55:00;102138.25;;;16.62;85.17
58534;BME280;44109;52.398;7.024;2023-05-24T07:57:28;102136.59;;;15.81;74.29
58534;BME280;44109;52.398;7.024;2023-05-24T07:59:55;102129.13;;;15.66;74.02
58534;BME280;44109;52.398;7.024;2023-05-24T08:02:25;102133.66;;;14.54;81.55
58534;BME280;44109;52.398;7.024;2023-05-24T08:04:52;102139.84;;;14.47;82.61
58534;BME280;44109;52.398;7.024;2023-05-24T08:07:20;102128.59;;;14.79;83.45
58534;BME280;44109;52.398;7.024;2023-05-24T08:09:47;102126.97;;;14.43;83.96
58534;BME280;44109;52.398;7.024;2023-05-24T08:12:15;102135.56;;;14.18;84.44
58534;BME280;44109;52.398;7.024;2023-05-24T08:14:43;102134.78;;;14.02;84.53
58534;BME280;44109;52.398;7.024;2023-05-24T08:17:10;102137.75;;;13.93;84.43
58534;BME280;44109;52.398;7.024;2023-05-24T08:19:39;102135.19;;;14.20;86.24
58534;BME280;44109;52.398;7.024;2023-05-24T08:22:07;102141.34;;;14.10;81.24
58534;BME280;44109;52.398;7.024;2023-05-24T08:24:34;102143.16;;;14.18;80.21
58534;BME280;44109;52.398;7.024;2023-05-24T08:27:02;102137.09;;;14.16;83.68
58534;BME280;44109;52.398;7.024;2023-05-24T08:29:30;102137.38;;;14.27;78.02
58534;BME280;44109;52.398;7.024;2023-05-24T08:31:58;102145.09;;;14.33;80.11
58534;BME280;44109;52.398;7.024;2023-05-24T08:34:25;102149.16;;;14.71;77.58
58534;BME280;44109;52.398;7.024;2023-05-24T08:36:54;102138.66;;;14.64;77.08
58534;BME280;44109;52.398;7.024;2023-05-24T08:39:22;102134.91;;;14.41;79.66
58534;BME280;44109;52.398;7.024;2023-05-24T08:41:50;102135.97;;;14.87;77.82
58534;BME280;44109;52.398;7.024;2023-05-24T08:44:19;102142.28;;;14.84;77.87
58534;BME280;44109;52.398;7.024;2023-05-24T08:46:50;102146.66;;;14.66;80.42
58534;BME280;44109;52.398;7.024;2023-05-24T08:49:19;102144.28;;;14.33;81.03
58534;BME280;44109;52.398;7.024;2023-05-24T08:51:48;102148.94;;;14.60;81.63
58534;BME280;44109;52.398;7.024;2023-05-24T08:54:20;102155.88;;;14.35;83.72
58534;BME280;44109;52.398;7.024;2023-05-24T08:56:48;102149.22;;;14.39;82.00
58534;BME280;44109;52.398;7.024;2023-05-24T08:59:17;102149.91;;;14.01;84.88
58534;BME280;44109;52.398;7.024;2023-05-24T09:01:47;102153.06;;;14.00;88.04
58534;BME280;44109;52.398;7.024;2023-05-24T09:04:20;102142.38;;;14.37;87.17
58534;BME280;44109;52.398;7.024;2023-05-24T09:06:51;102152.84;;;14.24;84.80
58534;BME280;44109;52.398;7.024;2023-05-24T09:09:26;102152.13;;;14.27;87.87
58534;BME280;44109;52.398;7.024;2023-05-24T09:11:57;102156.25;;;14.33;87.71
58534;BME280;44109;52.398;7.024;2023-05-24T09:14:28;102149.78;;;15.00;87.85
58534;BME280;44109;52.398;7.024;2023-05-24T09:16:56;102145.06;;;15.23;85.29
58534;BME280;44109;52.398;7.024;2023-05-24T09:19:24;102151.47;;;15.23;80.31
58534;BME280;44109;52.398;7.024;2023-05-24T09:21:53;102145.66;;;15.32;81.65
58534;BME280;44109;52.398;7.024;2023-05-24T09:24:23;102153.91;;;14.86;81.41
58534;BME280;44109;52.398;7.024;2023-05-24T09:26:51;102144.25;;;15.03;81.07
58534;BME280;44109;52.398;7.024;2023-05-24T09:29:21;102144.53;;;14.43;82.93
58534;BME280;44109;52.398;7.024;2023-05-24T09:31:54;102155.25;;;14.57;85.94
58534;BME280;44109;52.398;7.024;2023-05-24T09:34:22;102150.72;;;14.68;82.43
58534;BME280;44109;52.398;7.024;2023-05-24T09:36:51;102148.81;;;14.73;80.97
58534;BME280;44109;52.398;7.024;2023-05-24T09:39:20;102157.19;;;14.73;81.61
58534;BME280;44109;52.398;7.024;2023-05-24T09:41:52;102153.94;;;14.35;84.27
58534;BME280;44109;52.398;7.024;2023-05-24T09:44:23;102153.00;;;15.21;81.09
58534;BME280;44109;52.398;7.024;2023-05-24T09:46:53;102143.97;;;15.70;80.77
58534;BME280;44109;52.398;7.024;2023-05-24T09:49:21;102152.06;;;15.75;73.57
58534;BME280;44109;52.398;7.024;2023-05-24T09:51:51;102151.97;;;15.68;74.39
58534;BME280;44109;52.398;7.024;2023-05-24T09:54:19;102151.75;;;16.03;75.61
58534;BME280;44109;52.398;7.024;2023-05-24T09:56:47;102133.16;;;15.91;69.87
58534;BME280;44109;52.398;7.024;2023-05-24T09:59:17;102146.28;;;15.87;71.55
58534;BME280;44109;52.398;7.024;2023-05-24T10:01:45;102150.50;;;16.23;73.18
58534;BME280;44109;52.398;7.024;2023-05-24T10:04:31;102128.44;;;16.48;71.38
58534;BME280;44109;52.398;7.024;2023-05-24T10:07:00;102150.38;;;17.33;71.39
58534;BME280;44109;52.398;7.024;2023-05-24T10:09:28;102138.31;;;17.29;67.57
58534;BME280;44109;52.398;7.024;2023-05-24T10:12:01;102140.34;;;16.95;69.08
58534;BME280;44109;52.398;7.024;2023-05-24T10:14:33;102142.63;;;15.83;68.92
58534;BME280;44109;52.398;7.024;2023-05-24T10:17:02;102145.84;;;16.08;71.21
58534;BME280;44109;52.398;7.024;2023-05-24T10:19:31;102152.94;;;15.79;72.87
58534;BME280;44109;52.398;7.024;2023-05-24T10:21:59;102144.84;;;15.97;71.24
58534;BME280;44109;52.398;7.024;2023-05-24T10:24:34;102165.34;;;15.39;71.00
58534;BME280;44109;52.398;7.024;2023-05-24T10:27:09;102163.84;;;15.22;73.62
58534;BME280;44109;52.398;7.024;2023-05-24T10:29:58;102168.75;;;14.90;75.54
58534;BME280;44109;52.398;7.024;2023-05-24T10:32:32;102169.78;;;15.02;74.18
58534;BME280;44109;52.398;7.024;2023-05-24T10:35:05;102169.91;;;15.47;73.06
58534;BME280;44109;52.398;7.024;2023-05-24T10:37:36;102176.69;;;14.88;72.83
58534;BME280;44109;52.398;7.024;2023-05-24T10:40:05;102175.88;;;14.88;74.34
58534;BME280;44109;52.398;7.024;2023-05-24T10:42:35;102175.53;;;15.28;74.37
58534;BME280;44109;52.398;7.024;2023-05-24T10:45:29;102174.13;;;15.18;71.34
58534;BME280;44109;52.398;7.024;2023-05-24T10:48:07;102169.91;;;15.47;70.39
58534;BME280;44109;52.398;7.024;2023-05-24T10:50:36;102177.25;;;15.56;68.69
58534;BME280;44109;52.398;7.024;2023-05-24T10:53:10;102169.72;;;15.79;70.70
58534;BME280;44109;52.398;7.024;2023-05-24T10:55:54;102160.38;;;15.29;70.03
58534;BME280;44109;52.398;7.024;2023-05-24T10:58:27;102168.59;;;15.84;71.63
58534;BME280;44109;52.398;7.024;2023-05-24T11:01:23;102162.28;;;15.64;68.99
58534;BME280;44109;52.398;7.024;2023-05-24T11:03:53;102157.19;;;15.50;71.35
58534;BME280;44109;52.398;7.024;2023-05-24T11:06:46;102160.22;;;16.07;68.24
58534;BME280;44109;52.398;7.024;2023-05-24T11:09:15;102162.72;;;16.65;64.36
58534;BME280;44109;52.398;7.024;2023-05-24T11:11:46;102151.34;;;17.11;65.63
58534;BME280;44109;52.398;7.024;2023-05-24T11:14:17;102144.84;;;16.73;62.55
58534;BME280;44109;52.398;7.024;2023-05-24T11:16:49;102154.88;;;17.04;61.46
58534;BME280;44109;52.398;7.024;2023-05-24T11:19:18;102140.88;;;17.08;61.82
58534;BME280;44109;52.398;7.024;2023-05-24T11:21:48;102146.13;;;17.84;62.38
58534;BME280;44109;52.398;7.024;2023-05-24T11:24:17;102149.69;;;17.40;58.41
58534;BME280;44109;52.398;7.024;2023-05-24T11:26:46;102154.88;;;17.08;60.57
58534;BME280;44109;52.398;7.024;2023-05-24T11:29:14;102143.66;;;17.04;61.72
58534;BME280;44109;52.398;7.024;2023-05-24T11:31:47;102149.47;;;17.22;60.59
58534;BME280;44109;52.398;7.024;2023-05-24T11:34:17;102152.00;;;17.34;60.17
58534;BME280;44109;52.398;7.024;2023-05-24T11:36:46;102146.38;;;17.31;64.14
58534;BME280;44109;52.398;7.024;2023-05-24T11:39:17;102138.34;;;16.95;61.93
58534;BME280;44109;52.398;7.024;2023-05-24T11:41:46;102146.13;;;17.46;59.75
58534;BME280;44109;52.398;7.024;2023-05-24T11:44:16;102140.31;;;17.66;62.97
58534;BME280;44109;52.398;7.024;2023-05-24T11:46:45;102154.28;;;17.99;57.40
58534;BME280;44109;52.398;7.024;2023-05-24T11:49:16;102142.16;;;17.14;57.40
58534;BME280;44109;52.398;7.024;2023-05-24T11:51:43;102146.63;;;17.18;60.86
58534;BME280;44109;52.398;7.024;2023-05-24T11:54:11;102146.72;;;17.29;59.77
58534;BME280;44109;52.398;7.024;2023-05-24T11:56:39;102154.28;;;17.59;57.98
58534;BME280;44109;52.398;7.024;2023-05-24T11:59:10;102141.38;;;17.91;54.36
58534;BME280;44109;52.398;7.024;2023-05-24T12:01:41;102146.44;;;17.75;53.43
58534;BME280;44109;52.398;7.024;2023-05-24T12:04:09;102139.66;;;17.76;51.99
58534;BME280;44109;52.398;7.024;2023-05-24T12:06:40;102151.00;;;17.90;54.16
58534;BME280;44109;52.398;7.024;2023-05-24T12:09:10;102152.75;;;18.09;57.04
58534;BME280;44109;52.398;7.024;2023-05-24T12:11:40;102146.38;;;18.12;54.85
58534;BME280;44109;52.398;7.024;2023-05-24T12:14:12;102150.81;;;18.72;54.65
58534;BME280;44109;52.398;7.024;2023-05-24T12:16:41;102139.22;;;18.88;51.02
58534;BME280;44109;52.398;7.024;2023-05-24T12:19:12;102142.72;;;18.67;51.19
58534;BME280;44109;52.398;7.024;2023-05-24T12:21:46;102146.00;;;18.72;51.70
58534;BME280;44109;52.398;7.024;2023-05-24T12:24:16;102136.09;;;18.34;52.02
58534;BME280;44109;52.398;7.024;2023-05-24T12:26:46;102138.44;;;18.21;52.47
58534;BME280;44109;52.398;7.024;2023-05-24T12:29:15;102135.59;;;17.73;53.33
58534;BME280;44109;52.398;7.024;2023-05-24T12:31:47;102139.59;;;17.35;54.23
58534;BME280;44109;52.398;7.024;2023-05-24T12:34:17;102131.31;;;16.79;54.91
58534;BME280;44109;52.398;7.024;2023-05-24T12:36:47;102136.91;;;17.09;54.54
58534;BME280;44109;52.398;7.024;2023-05-24T12:39:19;102144.22;;;17.17;55.28
58534;BME280;44109;52.398;7.024;2023-05-24T12:41:51;102134.31;;;17.27;55.00
58534;BME280;44109;52.398;7.024;2023-05-24T12:44:22;102139.03;;;17.97;53.88
58534;BME280;44109;52.398;7.024;2023-05-24T12:46:52;102142.09;;;17.81;54.82
58534;BME280;44109;52.398;7.024;2023-05-24T12:49:21;102143.72;;;17.82;55.30
58534;BME280;44109;52.398;7.024;2023-05-24T12:51:52;102138.91;;;18.31;54.64
58534;BME280;44109;52.398;7.024;2023-05-24T12:54:21;102130.59;;;18.52;52.71
58534;BME280;44109;52.398;7.024;2023-05-24T12:56:50;102125.56;;;18.17;53.53
58534;BME280;44109;52.398;7.024;2023-05-24T12:59:18;102135.16;;;18.12;54.38
58534;BME280;44109;52.398;7.024;2023-05-24T13:01:47;102127.06;;;18.07;53.35